sensor_id;sensor_type;location;lat;lon;timestamp;pressure;altitude;pressure_sealevel;temperature;humidity
69848;BME280;57143;55.940;37.496;2024-03-25T00:01:58;98059.56;;;3.95;100.00
69848;BME280;57143;55.940;37.496;2024-03-25T00:04:25;98065.38;;;3.85;100.00
69848;BME280;57143;55.940;37.496;2024-03-25T00:06:51;98088.25;;;3.88;100.00
69848;BME280;57143;55.940;37.496;2024-03-25T00:09:19;98084.56;;;3.82;100.00
69848;BME280;57143;55.940;37.496;2024-03-25T00:11:46;98107.03;;;3.88;100.00
69848;BME280;57143;55.940;37.496;2024-03-25T00:14:13;98110.97;;;3.79;100.00
69848;BME280;57143;55.940;37.496;2024-03-25T00:16:40;98108.16;;;3.67;100.00
69848;BME280;57143;55.940;37.496;2024-03-25T00:19:09;98118.84;;;3.74;100.00
69848;BME280;57143;55.940;37.496;2024-03-25T00:21:35;98118.28;;;3.59;100.00
69848;BME280;57143;55.940;37.496;2024-03-25T00:24:03;98104.13;;;3.45;100.00
69848;BME280;57143;55.940;37.496;2024-03-25T00:26:29;98106.81;;;3.45;100.00
69848;BME280;57143;55.940;37.496;2024-03-25T00:28:57;98110.28;;;3.45;100.00
69848;BME280;57143;55.940;37.496;2024-03-25T00:31:23;98105.56;;;3.41;100.00
69848;BME280;57143;55.940;37.496;2024-03-25T00:33:51;98102.75;;;3.16;100.00
69848;BME280;57143;55.940;37.496;2024-03-25T00:36:18;98096.78;;;3.21;100.00
69848;BME280;57143;55.940;37.496;2024-03-25T00:38:46;98091.84;;;3.11;100.00
69848;BME280;57143;55.940;37.496;2024-03-25T00:41:12;98096.81;;;3.01;100.00
69848;BME280;57143;55.940;37.496;2024-03-25T00:43:39;98102.31;;;3.19;100.00
69848;BME280;57143;55.940;37.496;2024-03-25T00:46:06;98091.47;;;2.95;100.00
69848;BME280;57143;55.940;37.496;2024-03-25T00:48:33;98092.91;;;2.97;100.00
69848;BME280;57143;55.940;37.496;2024-03-25T00:50:59;98110.38;;;3.13;100.00
69848;BME280;57143;55.940;37.496;2024-03-25T00:53:28;98094.50;;;3.18;100.00
69848;BME280;57143;55.940;37.496;2024-03-25T00:55:54;98099.06;;;3.17;100.00
69848;BME280;57143;55.940;37.496;2024-03-25T00:58:22;98102.97;;;3.08;100.00
69848;BME280;57143;55.940;37.496;2024-03-25T01:00:48;98101.94;;;3.09;100.00
69848;BME280;57143;55.940;37.496;2024-03-25T01:03:15;98106.69;;;3.01;100.00
69848;BME280;57143;55.940;37.496;2024-03-25T01:05:42;98094.34;;;3.00;100.00
69848;BME280;57143;55.940;37.496;2024-03-25T01:08:09;98097.22;;;2.92;100.00
69848;BME280;57143;55.940;37.496;2024-03-25T01:10:40;98095.00;;;2.76;100.00
69848;BME280;57143;55.940;37.496;2024-03-25T01:13:08;98101.78;;;2.78;100.00
69848;BME280;57143;55.940;37.496;2024-03-25T01:15:34;98100.75;;;2.66;100.00
69848;BME280;57143;55.940;37.496;2024-03-25T01:18:01;98090.25;;;2.65;100.00
69848;BME280;57143;55.940;37.496;2024-03-25T01:20:28;98086.75;;;2.77;100.00
69848;BME280;57143;55.940;37.496;2024-03-25T01:22:56;98091.50;;;2.69;100.00
69848;BME280;57143;55.940;37.496;2024-03-25T01:25:22;98072.78;;;2.56;100.00
69848;BME280;57143;55.940;37.496;2024-03-25T01:27:51;98081.63;;;2.50;100.00
69848;BME280;57143;55.940;37.496;2024-03-25T01:30:18;98073.81;;;2.48;100.00
69848;BME280;57143;55.940;37.496;2024-03-25T01:32:45;98064.34;;;2.46;100.00
69848;BME280;57143;55.940;37.496;2024-03-25T01:35:13;98056.94;;;2.48;100.00
69848;BME280;57143;55.940;37.496;2024-03-25T01:37:41;98065.78;;;2.55;100.00
69848;BME280;57143;55.940;37.496;2024-03-25T01:40:08;98070.31;;;2.54;100.00
69848;BME280;57143;55.940;37.496;2024-03-25T01:42:36;98069.09;;;2.50;100.00
69848;BME280;57143;55.940;37.496;2024-03-25T01:45:05;98082.47;;;2.57;100.00
69848;BME280;57143;55.940;37.496;2024-03-25T01:47:32;98091.50;;;2.56;100.00
69848;BME280;57143;55.940;37.496;2024-03-25T01:50:01;98070.13;;;2.49;100.00
69848;BME280;57143;55.940;37.496;2024-03-25T01:52:30;98080.00;;;2.62;100.00
69848;BME280;57143;55.940;37.496;2024-03-25T01:54:56;98075.06;;;2.65;100.00
69848;BME280;57143;55.940;37.496;2024-03-25T01:57:24;98088.00;;;2.62;100.00
69848;BME280;57143;55.940;37.496;2024-03-25T01:59:52;98085.56;;;2.60;100.00
69848;BME280;57143;55.940;37.496;2024-03-25T02:02:22;98084.09;;;2.64;100.00
69848;BME280;57143;55.940;37.496;2024-03-25T02:04:48;98088.22;;;2.67;100.00
69848;BME280;57143;55.940;37.496;2024-03-25T02:07:16;98102.22;;;2.69;100.00
69848;BME280;57143;55.940;37.496;2024-03-25T02:09:44;98088.22;;;2.60;100.00
69848;BME280;57143;55.940;37.496;2024-03-25T02:12:11;98101.78;;;2.65;100.00
69848;BME280;57143;55.940;37.496;2024-03-25T02:14:38;98099.13;;;2.59;100.00
69848;BME280;57143;55.940;37.496;2024-03-25T02:17:06;98107.75;;;2.61;100.00
69848;BME280;57143;55.940;37.496;2024-03-25T02:19:34;98105.50;;;2.71;100.00
69848;BME280;57143;55.940;37.496;2024-03-25T02:22:02;98106.31;;;2.65;100.00
69848;BME280;57143;55.940;37.496;2024-03-25T02:24:30;98109.41;;;2.68;100.00
69848;BME280;57143;55.940;37.496;2024-03-25T02:26:59;98093.59;;;2.54;100.00
69848;BME280;57143;55.940;37.496;2024-03-25T02:29:33;98096.03;;;2.42;100.00
69848;BME280;57143;55.940;37.496;2024-03-25T02:32:00;98110.00;;;2.51;100.00
69848;BME280;57143;55.940;37.496;2024-03-25T02:34:26;98113.72;;;2.50;100.00
69848;BME280;57143;55.940;37.496;2024-03-25T02:36:54;98103.44;;;2.53;100.00
69848;BME280;57143;55.940;37.496;2024-03-25T02:39:20;98107.97;;;2.46;100.00
69848;BME280;57143;55.940;37.496;2024-03-25T02:41:50;98107.13;;;2.46;100.00
69848;BME280;57143;55.940;37.496;2024-03-25T02:44:18;98114.53;;;2.44;100.00
69848;BME280;57143;55.940;37.496;2024-03-25T02:46:45;98124.22;;;2.51;100.00
69848;BME280;57143;55.940;37.496;2024-03-25T02:49:12;98131.41;;;2.51;100.00
69848;BME280;57143;55.940;37.496;2024-03-25T02:51:39;98131.00;;;2.41;100.00
69848;BME280;57143;55.940;37.496;2024-03-25T02:54:05;98136.53;;;2.46;100.00
69848;BME280;57143;55.940;37.496;2024-03-25T02:56:34;98135.13;;;2.50;100.00
69848;BME280;57143;55.940;37.496;2024-03-25T02:59:00;98140.88;;;2.47;100.00
69848;BME280;57143;55.940;37.496;2024-03-25T03:01:29;98153.41;;;2.40;100.00
69848;BME280;57143;55.940;37.496;2024-03-25T03:03:56;98151.16;;;2.43;100.00
69848;BME280;57143;55.940;37.496;2024-03-25T03:06:23;98160.19;;;2.49;100.00
69848;BME280;57143;55.940;37.496;2024-03-25T03:08:50;98146.63;;;2.37;100.00
69848;BME280;57143;55.940;37.496;2024-03-25T03:11:17;98162.47;;;2.52;100.00
69848;BME280;57143;55.940;37.496;2024-03-25T03:13:43;98127.91;;;2.30;100.00
69848;BME280;57143;55.940;37.496;2024-03-25T03:16:10;98166.16;;;2.51;100.00
69848;BME280;57143;55.940;37.496;2024-03-25T03:18:39;98167.63;;;2.53;100.00
69848;BME280;57143;55.940;37.496;2024-03-25T03:21:06;98179.31;;;2.52;100.00
69848;BME280;57143;55.940;37.496;2024-03-25T03:23:32;98177.69;;;2.58;100.00
69848;BME280;57143;55.940;37.496;2024-03-25T03:26:00;98179.31;;;2.52;100.00
69848;BME280;57143;55.940;37.496;2024-03-25T03:28:26;98177.47;;;2.59;100.00
69848;BME280;57143;55.940;37.496;2024-03-25T03:30:54;98180.38;;;2.64;100.00
69848;BME280;57143;55.940;37.496;2024-03-25T03:33:20;98177.28;;;2.54;100.00
69848;BME280;57143;55.940;37.496;2024-03-25T03:35:50;98186.75;;;2.57;100.00
69848;BME280;57143;55.940;37.496;2024-03-25T03:38:16;98188.81;;;2.61;100.00
69848;BME280;57143;55.940;37.496;2024-03-25T03:40:44;98176.25;;;2.68;100.00
69848;BME280;57143;55.940;37.496;2024-03-25T03:43:10;98185.50;;;2.59;100.00
69848;BME280;57143;55.940;37.496;2024-03-25T03:45:38;98197.25;;;2.71;100.00
69848;BME280;57143;55.940;37.496;2024-03-25T03:48:04;98196.66;;;2.69;100.00
69848;BME280;57143;55.940;37.496;2024-03-25T03:50:32;98186.34;;;2.60;100.00
69848;BME280;57143;55.940;37.496;2024-03-25T03:52:59;98199.50;;;2.68;100.00
69848;BME280;57143;55.940;37.496;2024-03-25T03:55:27;98196.41;;;2.64;100.00
69848;BME280;57143;55.940;37.496;2024-03-25T03:57:53;98196.22;;;2.59;100.00
69848;BME280;57143;55.940;37.496;2024-03-25T04:00:21;98204.84;;;2.61;100.00
69848;BME280;57143;55.940;37.496;2024-03-25T04:02:47;98191.69;;;2.53;100.00
69848;BME280;57143;55.940;37.496;2024-03-25T04:05:14;98204.66;;;2.56;100.00
69848;BME280;57143;55.940;37.496;2024-03-25T04:07:41;98202.38;;;2.60;100.00
69848;BME280;57143;55.940;37.496;2024-03-25T04:10:09;98206.69;;;2.61;100.00
69848;BME280;57143;55.940;37.496;2024-03-25T04:12:36;98211.66;;;2.70;100.00
69848;BME280;57143;55.940;37.496;2024-03-25T04:15:04;98222.34;;;2.57;100.00
69848;BME280;57143;55.940;37.496;2024-03-25T04:17:30;98213.91;;;2.60;100.00
69848;BME280;57143;55.940;37.496;2024-03-25T04:19:59;98218.06;;;2.69;100.00
69848;BME280;57143;55.940;37.496;2024-03-25T04:22:26;98227.72;;;2.70;100.00
69848;BME280;57143;55.940;37.496;2024-03-25T04:24:53;98224.03;;;2.84;100.00
69848;BME280;57143;55.940;37.496;2024-03-25T04:27:21;98231.84;;;2.79;100.00
69848;BME280;57143;55.940;37.496;2024-03-25T04:29:50;98222.56;;;2.82;100.00
69848;BME280;57143;55.940;37.496;2024-03-25T04:32:16;98232.69;;;2.93;100.00
69848;BME280;57143;55.940;37.496;2024-03-25T04:34:44;98211.88;;;2.82;100.00
69848;BME280;57143;55.940;37.496;2024-03-25T04:37:11;98232.69;;;2.86;100.00
69848;BME280;57143;55.940;37.496;2024-03-25T04:39:37;98228.53;;;2.90;100.00
69848;BME280;57143;55.940;37.496;2024-03-25T04:42:03;98232.28;;;3.09;100.00
69848;BME280;57143;55.940;37.496;2024-03-25T04:44:31;98212.91;;;2.87;100.00
69848;BME280;57143;55.940;37.496;2024-03-25T04:46:57;98231.63;;;3.00;100.00
69848;BME280;57143;55.940;37.496;2024-03-25T04:49:23;98242.34;;;3.00;100.00
69848;BME280;57143;55.940;37.496;2024-03-25T04:51:49;98234.94;;;2.96;100.00
69848;BME280;57143;55.940;37.496;2024-03-25T04:54:16;98255.13;;;3.05;100.00
69848;BME280;57143;55.940;37.496;2024-03-25T04:56:42;98259.03;;;3.02;100.00
69848;BME280;57143;55.940;37.496;2024-03-25T04:59:08;98263.78;;;3.07;100.00
69848;BME280;57143;55.940;37.496;2024-03-25T05:01:36;98272.44;;;3.09;100.00
69848;BME280;57143;55.940;37.496;2024-03-25T05:04:03;98278.59;;;3.22;100.00
69848;BME280;57143;55.940;37.496;2024-03-25T05:06:29;98268.09;;;3.21;100.00
69848;BME280;57143;55.940;37.496;2024-03-25T05:08:55;98277.16;;;3.46;100.00
69848;BME280;57143;55.940;37.496;2024-03-25T05:11:21;98282.72;;;3.51;100.00
69848;BME280;57143;55.940;37.496;2024-03-25T05:13:48;98291.13;;;3.61;100.00
69848;BME280;57143;55.940;37.496;2024-03-25T05:16:14;98288.69;;;3.53;100.00
69848;BME280;57143;55.940;37.496;2024-03-25T05:18:42;98294.44;;;3.63;100.00
69848;BME280;57143;55.940;37.496;2024-03-25T05:21:08;98292.56;;;3.70;100.00
69848;BME280;57143;55.940;37.496;2024-03-25T05:23:34;98289.81;;;4.03;100.00
69848;BME280;57143;55.940;37.496;2024-03-25T05:26:01;98291.69;;;4.09;100.00
69848;BME280;57143;55.940;37.496;2024-03-25T05:28:27;98299.06;;;4.20;100.00
69848;BME280;57143;55.940;37.496;2024-03-25T05:30:53;98298.03;;;4.14;100.00
69848;BME280;57143;55.940;37.496;2024-03-25T05:33:20;98312.03;;;4.73;100.00
69848;BME280;57143;55.940;37.496;2024-03-25T05:35:47;98307.63;;;4.86;100.00
69848;BME280;57143;55.940;37.496;2024-03-25T05:38:14;98337.16;;;6.58;100.00
69848;BME280;57143;55.940;37.496;2024-03-25T05:40:40;98364.19;;;7.29;100.00
69848;BME280;57143;55.940;37.496;2024-03-25T05:43:06;98384.16;;;7.10;100.00
69848;BME280;57143;55.940;37.496;2024-03-25T05:45:32;98414.00;;;7.08;100.00
69848;BME280;57143;55.940;37.496;2024-03-25T05:47:59;98430.34;;;6.77;100.00
69848;BME280;57143;55.940;37.496;2024-03-25T05:50:25;98439.06;;;6.54;100.00
69848;BME280;57143;55.940;37.496;2024-03-25T05:52:53;98454.97;;;6.38;100.00
69848;BME280;57143;55.940;37.496;2024-03-25T05:55:19;98460.16;;;5.90;100.00
69848;BME280;57143;55.940;37.496;2024-03-25T05:57:45;98450.19;;;5.91;100.00
69848;BME280;57143;55.940;37.496;2024-03-25T06:00:12;98463.94;;;5.76;100.00
69848;BME280;57143;55.940;37.496;2024-03-25T06:02:39;98445.28;;;6.12;100.00
69848;BME280;57143;55.940;37.496;2024-03-25T06:05:05;98454.44;;;7.08;100.00
69848;BME280;57143;55.940;37.496;2024-03-25T06:07:31;98467.84;;;6.96;100.00
69848;BME280;57143;55.940;37.496;2024-03-25T06:09:59;98471.28;;;7.51;100.00
69848;BME280;57143;55.940;37.496;2024-03-25T06:12:25;98497.44;;;8.21;100.00
69848;BME280;57143;55.940;37.496;2024-03-25T06:14:52;98508.91;;;8.05;100.00
69848;BME280;57143;55.940;37.496;2024-03-25T06:17:18;98515.50;;;8.62;100.00
69848;BME280;57143;55.940;37.496;2024-03-25T06:19:44;98513.72;;;8.15;100.00
69848;BME280;57143;55.940;37.496;2024-03-25T06:22:10;98518.81;;;8.23;100.00
69848;BME280;57143;55.940;37.496;2024-03-25T06:24:36;98540.88;;;7.43;100.00
69848;BME280;57143;55.940;37.496;2024-03-25T06:27:04;98541.69;;;7.07;100.00
69848;BME280;57143;55.940;37.496;2024-03-25T06:29:31;98535.13;;;6.78;100.00
69848;BME280;57143;55.940;37.496;2024-03-25T06:31:57;98555.50;;;6.74;100.00
69848;BME280;57143;55.940;37.496;2024-03-25T06:34:42;98557.50;;;6.30;100.00
69848;BME280;57143;55.940;37.496;2024-03-25T06:37:08;98550.97;;;6.19;100.00
69848;BME280;57143;55.940;37.496;2024-03-25T06:39:34;98554.81;;;6.30;100.00
69848;BME280;57143;55.940;37.496;2024-03-25T06:42:01;98558.59;;;6.22;100.00
69848;BME280;57143;55.940;37.496;2024-03-25T06:44:28;98545.88;;;6.05;100.00
69848;BME280;57143;55.940;37.496;2024-03-25T06:46:55;98544.41;;;6.09;100.00
69848;BME280;57143;55.940;37.496;2024-03-25T06:49:21;98553.69;;;6.13;100.00
69848;BME280;57143;55.940;37.496;2024-03-25T06:51:47;98558.09;;;6.07;100.00
69848;BME280;57143;55.940;37.496;2024-03-25T06:54:13;98549.78;;;6.09;100.00
69848;BME280;57143;55.940;37.496;2024-03-25T06:56:40;98546.91;;;6.59;100.00
69848;BME280;57143;55.940;37.496;2024-03-25T06:59:06;98549.28;;;6.49;100.00
69848;BME280;57143;55.940;37.496;2024-03-25T07:01:34;98576.97;;;6.81;100.00
69848;BME280;57143;55.940;37.496;2024-03-25T07:04:00;98589.69;;;6.92;100.00
69848;BME280;57143;55.940;37.496;2024-03-25T07:06:26;98570.84;;;6.92;100.00
69848;BME280;57143;55.940;37.496;2024-03-25T07:08:52;98581.28;;;6.82;100.00
69848;BME280;57143;55.940;37.496;2024-03-25T07:11:18;98595.16;;;6.61;100.00
69848;BME280;57143;55.940;37.496;2024-03-25T07:13:45;98607.06;;;6.71;100.00
69848;BME280;57143;55.940;37.496;2024-03-25T07:16:11;98602.13;;;6.93;100.00
69848;BME280;57143;55.940;37.496;2024-03-25T07:18:38;98611.19;;;6.74;100.00
69848;BME280;57143;55.940;37.496;2024-03-25T07:21:05;98608.66;;;7.03;100.00
69848;BME280;57143;55.940;37.496;2024-03-25T07:23:31;98597.72;;;6.98;100.00
69848;BME280;57143;55.940;37.496;2024-03-25T07:25:57;98627.47;;;7.10;100.00
69848;BME280;57143;55.940;37.496;2024-03-25T07:28:23;98627.13;;;7.00;100.00
69848;BME280;57143;55.940;37.496;2024-03-25T07:30:50;98630.59;;;6.82;100.00
69848;BME280;57143;55.940;37.496;2024-03-25T07:33:16;98633.91;;;6.84;100.00
69848;BME280;57143;55.940;37.496;2024-03-25T07:35:44;98640.16;;;7.03;100.00
69848;BME280;57143;55.940;37.496;2024-03-25T07:38:11;98638.94;;;7.24;100.00
69848;BME280;57143;55.940;37.496;2024-03-25T07:40:37;98654.41;;;7.10;100.00
69848;BME280;57143;55.940;37.496;2024-03-25T07:43:03;98655.06;;;7.66;100.00
69848;BME280;57143;55.940;37.496;2024-03-25T07:45:30;98648.97;;;8.25;100.00
69848;BME280;57143;55.940;37.496;2024-03-25T07:47:56;98650.41;;;8.57;100.00
69848;BME280;57143;55.940;37.496;2024-03-25T07:50:22;98645.75;;;8.76;100.00
69848;BME280;57143;55.940;37.496;2024-03-25T07:52:50;98646.88;;;8.27;100.00
69848;BME280;57143;55.940;37.496;2024-03-25T07:58:01;98629.41;;;8.59;100.00
69848;BME280;57143;55.940;37.496;2024-03-25T08:00:27;98635.66;;;8.71;100.00
69848;BME280;57143;55.940;37.496;2024-03-25T08:02:53;98614.56;;;8.20;100.00
69848;BME280;57143;55.940;37.496;2024-03-25T08:05:19;98634.50;;;8.19;100.00
69848;BME280;57143;55.940;37.496;2024-03-25T08:07:46;98627.47;;;8.48;100.00
69848;BME280;57143;55.940;37.496;2024-03-25T08:10:13;98627.84;;;8.52;100.00
69848;BME280;57143;55.940;37.496;2024-03-25T08:12:40;98611.03;;;9.25;100.00
69848;BME280;57143;55.940;37.496;2024-03-25T08:15:07;98579.47;;;9.66;100.00
69848;BME280;57143;55.940;37.496;2024-03-25T08:17:33;98573.31;;;9.70;100.00
69848;BME280;57143;55.940;37.496;2024-03-25T08:19:59;98537.69;;;10.13;100.00
69848;BME280;57143;55.940;37.496;2024-03-25T08:22:26;98549.31;;;9.74;100.00
69848;BME280;57143;55.940;37.496;2024-03-25T08:24:52;98538.66;;;10.23;100.00
69848;BME280;57143;55.940;37.496;2024-03-25T08:27:20;98528.75;;;10.29;100.00
69848;BME280;57143;55.940;37.496;2024-03-25T08:29:46;98470.34;;;10.33;100.00
69848;BME280;57143;55.940;37.496;2024-03-25T08:32:12;98460.81;;;10.47;100.00
69848;BME280;57143;55.940;37.496;2024-03-25T08:34:38;98468.13;;;10.02;100.00
69848;BME280;57143;55.940;37.496;2024-03-25T08:37:04;98502.25;;;10.03;100.00
69848;BME280;57143;55.940;37.496;2024-03-25T08:39:31;98499.09;;;9.78;100.00
69848;BME280;57143;55.940;37.496;2024-03-25T08:41:57;98509.44;;;10.09;100.00
69848;BME280;57143;55.940;37.496;2024-03-25T08:44:24;98503.56;;;9.32;100.00
69848;BME280;57143;55.940;37.496;2024-03-25T08:46:50;98548.25;;;8.77;100.00
69848;BME280;57143;55.940;37.496;2024-03-25T08:49:17;98564.78;;;8.58;100.00
69848;BME280;57143;55.940;37.496;2024-03-25T08:51:43;98591.66;;;8.41;100.00
69848;BME280;57143;55.940;37.496;2024-03-25T08:54:09;98609.44;;;8.60;100.00
69848;BME280;57143;55.940;37.496;2024-03-25T08:56:35;98617.91;;;8.34;100.00
69848;BME280;57143;55.940;37.496;2024-03-25T08:59:02;98625.00;;;7.99;100.00
69848;BME280;57143;55.940;37.496;2024-03-25T09:01:29;98632.63;;;8.38;100.00
69848;BME280;57143;55.940;37.496;2024-03-25T09:03:56;98624.91;;;7.76;100.00
69848;BME280;57143;55.940;37.496;2024-03-25T09:06:22;98629.69;;;8.21;100.00
69848;BME280;57143;55.940;37.496;2024-03-25T09:08:48;98646.78;;;8.34;100.00
69848;BME280;57143;55.940;37.496;2024-03-25T09:11:33;98650.78;;;8.72;100.00
69848;BME280;57143;55.940;37.496;2024-03-25T09:13:59;98642.53;;;8.56;100.00
69848;BME280;57143;55.940;37.496;2024-03-25T09:16:25;98624.25;;;8.69;100.00
69848;BME280;57143;55.940;37.496;2024-03-25T09:18:53;98605.28;;;8.99;100.00
69848;BME280;57143;55.940;37.496;2024-03-25T09:21:19;98609.31;;;8.55;100.00
69848;BME280;57143;55.940;37.496;2024-03-25T09:23:46;98624.19;;;8.58;100.00
69848;BME280;57143;55.940;37.496;2024-03-25T09:26:12;98628.69;;;8.64;100.00
69848;BME280;57143;55.940;37.496;2024-03-25T09:28:38;98632.47;;;8.15;100.00
69848;BME280;57143;55.940;37.496;2024-03-25T09:31:04;98647.44;;;8.47;100.00
69848;BME280;57143;55.940;37.496;2024-03-25T09:33:30;98643.97;;;8.70;100.00
69848;BME280;57143;55.940;37.496;2024-03-25T09:35:58;98647.97;;;8.38;100.00
69848;BME280;57143;55.940;37.496;2024-03-25T09:38:24;98646.75;;;8.52;100.00
69848;BME280;57143;55.940;37.496;2024-03-25T09:40:53;98641.41;;;8.75;100.00
69848;BME280;57143;55.940;37.496;2024-03-25T09:43:25;98650.53;;;8.62;100.00
69848;BME280;57143;55.940;37.496;2024-03-25T09:45:54;98662.19;;;8.74;100.00
69848;BME280;57143;55.940;37.496;2024-03-25T09:48:21;98648.59;;;8.81;100.00
69848;BME280;57143;55.940;37.496;2024-03-25T09:50:49;98622.34;;;8.58;100.00
69848;BME280;57143;55.940;37.496;2024-03-25T09:53:17;98657.75;;;8.80;100.00
69848;BME280;57143;55.940;37.496;2024-03-25T09:55:46;98660.84;;;8.24;100.00
69848;BME280;57143;55.940;37.496;2024-03-25T09:58:13;98667.56;;;8.33;100.00
69848;BME280;57143;55.940;37.496;2024-03-25T10:00:40;98668.25;;;8.29;100.00
69848;BME280;57143;55.940;37.496;2024-03-25T10:03:06;98671.00;;;8.22;100.00
69848;BME280;57143;55.940;37.496;2024-03-25T10:05:33;98676.72;;;8.14;100.00
69848;BME280;57143;55.940;37.496;2024-03-25T10:07:59;98679.91;;;8.41;100.00
69848;BME280;57143;55.940;37.496;2024-03-25T10:10:27;98671.22;;;8.68;100.00
69848;BME280;57143;55.940;37.496;2024-03-25T10:12:55;98670.91;;;8.88;100.00
69848;BME280;57143;55.940;37.496;2024-03-25T10:15:21;98661.50;;;8.79;100.00
69848;BME280;57143;55.940;37.496;2024-03-25T10:17:49;98665.31;;;8.60;100.00
69848;BME280;57143;55.940;37.496;2024-03-25T10:20:16;98669.94;;;8.71;100.00
69848;BME280;57143;55.940;37.496;2024-03-25T10:22:42;98661.25;;;8.39;100.00
69848;BME280;57143;55.940;37.496;2024-03-25T10:25:19;98673.63;;;8.29;100.00
69848;BME280;57143;55.940;37.496;2024-03-25T10:27:54;98681.72;;;8.47;100.00
69848;BME280;57143;55.940;37.496;2024-03-25T10:30:21;98685.78;;;8.38;100.00
69848;BME280;57143;55.940;37.496;2024-03-25T10:32:57;98682.19;;;8.44;100.00
69848;BME280;57143;55.940;37.496;2024-03-25T10:35:26;98687.28;;;8.63;100.00
69848;BME280;57143;55.940;37.496;2024-03-25T10:37:55;98674.84;;;8.62;100.00
69848;BME280;57143;55.940;37.496;2024-03-25T10:40:23;98664.81;;;8.51;100.00
69848;BME280;57143;55.940;37.496;2024-03-25T10:42:57;98675.56;;;8.69;100.00
69848;BME280;57143;55.940;37.496;2024-03-25T10:45:27;98659.06;;;8.48;100.00
69848;BME280;57143;55.940;37.496;2024-03-25T10:47:57;98675.38;;;8.53;100.00
69848;BME280;57143;55.940;37.496;2024-03-25T10:50:28;98660.75;;;8.31;100.00
69848;BME280;57143;55.940;37.496;2024-03-25T10:52:54;98669.56;;;8.38;100.00
69848;BME280;57143;55.940;37.496;2024-03-25T10:55:22;98643.75;;;8.12;100.00
69848;BME280;57143;55.940;37.496;2024-03-25T10:57:48;98641.66;;;7.96;100.00
69848;BME280;57143;55.940;37.496;2024-03-25T11:00:16;98660.31;;;8.15;100.00
69848;BME280;57143;55.940;37.496;2024-03-25T11:02:43;98665.56;;;8.10;100.00
69848;BME280;57143;55.940;37.496;2024-03-25T11:05:10;98690.06;;;8.27;100.00
69848;BME280;57143;55.940;37.496;2024-03-25T11:07:37;98696.81;;;8.36;100.00
69848;BME280;57143;55.940;37.496;2024-03-25T11:10:05;98686.78;;;8.25;100.00
69848;BME280;57143;55.940;37.496;2024-03-25T11:12:35;98673.94;;;8.39;100.00
69848;BME280;57143;55.940;37.496;2024-03-25T11:15:02;98655.56;;;8.47;100.00
69848;BME280;57143;55.940;37.496;2024-03-25T11:17:33;98667.28;;;7.87;100.00
69848;BME280;57143;55.940;37.496;2024-03-25T11:20:15;98671.69;;;7.63;100.00
69848;BME280;57143;55.940;37.496;2024-03-25T11:22:49;98676.88;;;7.65;100.00
69848;BME280;57143;55.940;37.496;2024-03-25T11:25:16;98705.06;;;7.26;100.00
69848;BME280;57143;55.940;37.496;2024-03-25T11:27:44;98715.38;;;7.29;100.00
69848;BME280;57143;55.940;37.496;2024-03-25T11:33:01;98727.00;;;7.30;100.00
69848;BME280;57143;55.940;37.496;2024-03-25T11:35:27;98716.16;;;7.12;100.00
69848;BME280;57143;55.940;37.496;2024-03-25T11:37:54;98732.56;;;7.35;100.00
69848;BME280;57143;55.940;37.496;2024-03-25T11:40:20;98736.72;;;7.55;100.00
69848;BME280;57143;55.940;37.496;2024-03-25T11:42:46;98743.41;;;7.28;100.00
69848;BME280;57143;55.940;37.496;2024-03-25T11:45:15;98725.94;;;6.75;100.00
69848;BME280;57143;55.940;37.496;2024-03-25T11:47:42;98749.16;;;7.07;100.00
69848;BME280;57143;55.940;37.496;2024-03-25T11:50:12;98746.94;;;7.22;100.00
69848;BME280;57143;55.940;37.496;2024-03-25T11:52:39;98742.28;;;7.36;100.00
69848;BME280;57143;55.940;37.496;2024-03-25T11:55:06;98743.34;;;7.35;100.00
69848;BME280;57143;55.940;37.496;2024-03-25T11:57:32;98743.59;;;7.51;100.00
69848;BME280;57143;55.940;37.496;2024-03-25T11:59:59;98741.94;;;7.50;100.00
69848;BME280;57143;55.940;37.496;2024-03-25T12:02:25;98747.81;;;7.41;100.00
69848;BME280;57143;55.940;37.496;2024-03-25T12:04:52;98753.53;;;7.51;100.00
69848;BME280;57143;55.940;37.496;2024-03-25T12:07:19;98744.41;;;7.52;100.00
69848;BME280;57143;55.940;37.496;2024-03-25T12:09:46;98741.06;;;7.32;100.00
69848;BME280;57143;55.940;37.496;2024-03-25T12:12:32;98719.81;;;6.92;100.00
69848;BME280;57143;55.940;37.496;2024-03-25T12:14:59;98737.09;;;7.10;100.00
69848;BME280;57143;55.940;37.496;2024-03-25T12:17:25;98744.19;;;7.29;100.00
69848;BME280;57143;55.940;37.496;2024-03-25T12:19:59;98739.41;;;7.31;100.00
69848;BME280;57143;55.940;37.496;2024-03-25T12:22:27;98747.72;;;7.54;100.00
69848;BME280;57143;55.940;37.496;2024-03-25T12:24:53;98751.66;;;7.33;100.00
69848;BME280;57143;55.940;37.496;2024-03-25T12:27:23;98749.75;;;7.34;100.00
69848;BME280;57143;55.940;37.496;2024-03-25T12:29:57;98748.72;;;7.35;100.00
69848;BME280;57143;55.940;37.496;2024-03-25T12:32:31;98754.81;;;7.48;100.00
69848;BME280;57143;55.940;37.496;2024-03-25T12:34:58;98759.53;;;7.53;100.00
69848;BME280;57143;55.940;37.496;2024-03-25T12:37:27;98765.69;;;7.60;100.00
69848;BME280;57143;55.940;37.496;2024-03-25T12:39:53;98744.91;;;7.67;100.00
69848;BME280;57143;55.940;37.496;2024-03-25T12:42:20;98735.84;;;7.12;100.00
69848;BME280;57143;55.940;37.496;2024-03-25T12:44:46;98727.81;;;7.30;100.00
69848;BME280;57143;55.940;37.496;2024-03-25T12:47:12;98730.56;;;7.48;100.00
69848;BME280;57143;55.940;37.496;2024-03-25T12:49:38;98720.91;;;7.59;100.00
69848;BME280;57143;55.940;37.496;2024-03-25T12:52:05;98723.78;;;7.15;100.00
69848;BME280;57143;55.940;37.496;2024-03-25T12:54:33;98716.69;;;7.20;100.00
69848;BME280;57143;55.940;37.496;2024-03-25T12:57:00;98723.53;;;7.23;100.00